sensor_id;sensor_type;location;lat;lon;timestamp;temperature;humidity
8591;DHT22;4333;48.322;14.340;2024-02-28T00:00:16;4.40;99.90
8591;DHT22;4333;48.322;14.340;2024-02-28T00:02:42;4.40;99.90
8591;DHT22;4333;48.322;14.340;2024-02-28T00:05:11;4.40;99.90
8591;DHT22;4333;48.322;14.340;2024-02-28T00:07:40;4.30;99.90
8591;DHT22;4333;48.322;14.340;2024-02-28T00:10:06;4.40;99.90
8591;DHT22;4333;48.322;14.340;2024-02-28T00:12:34;4.40;99.90
8591;DHT22;4333;48.322;14.340;2024-02-28T00:15:06;4.40;99.90
8591;DHT22;4333;48.322;14.340;2024-02-28T00:17:39;4.40;99.90
8591;DHT22;4333;48.322;14.340;2024-02-28T00:20:27;4.40;99.90
8591;DHT22;4333;48.322;14.340;2024-02-28T00:22:56;4.40;99.90
8591;DHT22;4333;48.322;14.340;2024-02-28T00:25:22;4.30;99.90
8591;DHT22;4333;48.322;14.340;2024-02-28T00:27:55;4.40;99.90
8591;DHT22;4333;48.322;14.340;2024-02-28T00:30:25;4.30;99.90
8591;DHT22;4333;48.322;14.340;2024-02-28T00:32:56;4.20;99.90
8591;DHT22;4333;48.322;14.340;2024-02-28T00:35:25;4.30;99.90
8591;DHT22;4333;48.322;14.340;2024-02-28T00:37:54;4.30;99.90
8591;DHT22;4333;48.322;14.340;2024-02-28T00:40:22;4.40;99.90
8591;DHT22;4333;48.322;14.340;2024-02-28T00:42:51;4.40;99.90
8591;DHT22;4333;48.322;14.340;2024-02-28T00:45:17;4.20;99.90
8591;DHT22;4333;48.322;14.340;2024-02-28T00:47:45;4.20;99.90
8591;DHT22;4333;48.322;14.340;2024-02-28T00:50:13;4.30;99.90
8591;DHT22;4333;48.322;14.340;2024-02-28T00:52:44;4.30;99.90
8591;DHT22;4333;48.322;14.340;2024-02-28T00:55:10;4.10;99.90
8591;DHT22;4333;48.322;14.340;2024-02-28T00:57:41;4.00;99.90
8591;DHT22;4333;48.322;14.340;2024-02-28T01:00:17;3.90;99.90
8591;DHT22;4333;48.322;14.340;2024-02-28T01:02:43;4.00;99.90
8591;DHT22;4333;48.322;14.340;2024-02-28T01:05:13;4.10;99.90
8591;DHT22;4333;48.322;14.340;2024-02-28T01:07:44;4.10;99.90
8591;DHT22;4333;48.322;14.340;2024-02-28T01:10:12;4.10;99.90
8591;DHT22;4333;48.322;14.340;2024-02-28T01:12:49;4.00;99.90
8591;DHT22;4333;48.322;14.340;2024-02-28T01:15:18;3.90;99.90
8591;DHT22;4333;48.322;14.340;2024-02-28T01:17:46;3.80;99.90
8591;DHT22;4333;48.322;14.340;2024-02-28T01:20:13;3.60;99.90
8591;DHT22;4333;48.322;14.340;2024-02-28T01:22:45;3.60;99.90
8591;DHT22;4333;48.322;14.340;2024-02-28T01:25:13;3.50;99.90
8591;DHT22;4333;48.322;14.340;2024-02-28T01:27:45;3.40;99.90
8591;DHT22;4333;48.322;14.340;2024-02-28T01:30:14;3.40;99.90
8591;DHT22;4333;48.322;14.340;2024-02-28T01:32:45;3.40;99.90
8591;DHT22;4333;48.322;14.340;2024-02-28T01:35:14;3.30;99.90
8591;DHT22;4333;48.322;14.340;2024-02-28T01:37:42;3.30;99.90
8591;DHT22;4333;48.322;14.340;2024-02-28T01:40:11;3.10;99.90
8591;DHT22;4333;48.322;14.340;2024-02-28T01:42:40;3.10;99.90
8591;DHT22;4333;48.322;14.340;2024-02-28T01:45:06;3.10;99.90
8591;DHT22;4333;48.322;14.340;2024-02-28T01:47:41;3.10;99.90
8591;DHT22;4333;48.322;14.340;2024-02-28T01:50:08;3.10;99.90
8591;DHT22;4333;48.322;14.340;2024-02-28T01:52:36;3.20;99.90
8591;DHT22;4333;48.322;14.340;2024-02-28T01:55:06;3.10;99.90
8591;DHT22;4333;48.322;14.340;2024-02-28T01:57:43;3.10;99.90
8591;DHT22;4333;48.322;14.340;2024-02-28T02:00:13;3.00;99.90
8591;DHT22;4333;48.322;14.340;2024-02-28T02:02:44;3.00;99.90
8591;DHT22;4333;48.322;14.340;2024-02-28T02:05:12;3.20;99.90
8591;DHT22;4333;48.322;14.340;2024-02-28T02:07:38;3.30;99.90
8591;DHT22;4333;48.322;14.340;2024-02-28T02:10:05;3.20;99.90
8591;DHT22;4333;48.322;14.340;2024-02-28T02:12:39;3.00;99.90
8591;DHT22;4333;48.322;14.340;2024-02-28T02:15:13;3.00;99.90
8591;DHT22;4333;48.322;14.340;2024-02-28T02:17:46;3.00;99.90
8591;DHT22;4333;48.322;14.340;2024-02-28T02:20:22;3.20;99.90
8591;DHT22;4333;48.322;14.340;2024-02-28T02:22:57;3.30;99.90
8591;DHT22;4333;48.322;14.340;2024-02-28T02:25:31;3.40;99.90
8591;DHT22;4333;48.322;14.340;2024-02-28T02:28:00;3.30;99.90
8591;DHT22;4333;48.322;14.340;2024-02-28T02:30:26;3.30;99.90
8591;DHT22;4333;48.322;14.340;2024-02-28T02:32:51;3.30;99.90
8591;DHT22;4333;48.322;14.340;2024-02-28T02:35:21;3.30;99.90
8591;DHT22;4333;48.322;14.340;2024-02-28T02:37:51;3.20;99.90
8591;DHT22;4333;48.322;14.340;2024-02-28T02:40:24;3.00;99.90
8591;DHT22;4333;48.322;14.340;2024-02-28T02:42:54;2.90;99.90
8591;DHT22;4333;48.322;14.340;2024-02-28T02:45:23;2.90;99.90
8591;DHT22;4333;48.322;14.340;2024-02-28T02:47:49;2.90;99.90
8591;DHT22;4333;48.322;14.340;2024-02-28T02:50:14;2.90;99.90
8591;DHT22;4333;48.322;14.340;2024-02-28T02:52:40;2.90;99.90
8591;DHT22;4333;48.322;14.340;2024-02-28T02:55:12;2.90;99.90
8591;DHT22;4333;48.322;14.340;2024-02-28T02:57:43;2.90;99.90
8591;DHT22;4333;48.322;14.340;2024-02-28T03:00:12;2.90;99.90
8591;DHT22;4333;48.322;14.340;2024-02-28T03:02:41;3.00;99.90
8591;DHT22;4333;48.322;14.340;2024-02-28T03:05:07;3.20;99.90
8591;DHT22;4333;48.322;14.340;2024-02-28T03:07:35;3.30;99.90
8591;DHT22;4333;48.322;14.340;2024-02-28T03:10:04;3.30;99.90
8591;DHT22;4333;48.322;14.340;2024-02-28T03:12:33;3.30;99.90
8591;DHT22;4333;48.322;14.340;2024-02-28T03:15:02;3.40;99.90
8591;DHT22;4333;48.322;14.340;2024-02-28T03:17:30;3.40;99.90
8591;DHT22;4333;48.322;14.340;2024-02-28T03:19:56;3.30;99.90
8591;DHT22;4333;48.322;14.340;2024-02-28T03:22:29;3.20;99.90
8591;DHT22;4333;48.322;14.340;2024-02-28T03:24:58;3.00;99.90
8591;DHT22;4333;48.322;14.340;2024-02-28T03:27:27;2.90;99.90
8591;DHT22;4333;48.322;14.340;2024-02-28T03:29:55;2.90;99.90
8591;DHT22;4333;48.322;14.340;2024-02-28T03:32:28;2.90;99.90
8591;DHT22;4333;48.322;14.340;2024-02-28T03:35:00;2.90;99.90
8591;DHT22;4333;48.322;14.340;2024-02-28T03:37:26;2.90;99.90
8591;DHT22;4333;48.322;14.340;2024-02-28T03:39:54;2.90;99.90
8591;DHT22;4333;48.322;14.340;2024-02-28T03:42:20;2.80;99.90
8591;DHT22;4333;48.322;14.340;2024-02-28T03:44:46;2.70;99.90
8591;DHT22;4333;48.322;14.340;2024-02-28T03:47:12;2.80;99.90
8591;DHT22;4333;48.322;14.340;2024-02-28T03:49:41;2.90;99.90
8591;DHT22;4333;48.322;14.340;2024-02-28T03:52:08;2.80;99.90
8591;DHT22;4333;48.322;14.340;2024-02-28T03:54:44;2.70;99.90
8591;DHT22;4333;48.322;14.340;2024-02-28T03:57:19;2.80;99.90
8591;DHT22;4333;48.322;14.340;2024-02-28T03:59:44;3.00;99.90
8591;DHT22;4333;48.322;14.340;2024-02-28T04:02:13;3.00;99.90
8591;DHT22;4333;48.322;14.340;2024-02-28T04:04:38;3.10;99.90
8591;DHT22;4333;48.322;14.340;2024-02-28T04:07:08;3.10;99.90
8591;DHT22;4333;48.322;14.340;2024-02-28T04:09:34;3.00;99.90
8591;DHT22;4333;48.322;14.340;2024-02-28T04:12:00;2.90;99.90
8591;DHT22;4333;48.322;14.340;2024-02-28T04:14:26;2.90;99.90
8591;DHT22;4333;48.322;14.340;2024-02-28T04:16:52;2.80;99.90
8591;DHT22;4333;48.322;14.340;2024-02-28T04:19:20;2.90;99.90
8591;DHT22;4333;48.322;14.340;2024-02-28T04:21:49;2.90;99.90
8591;DHT22;4333;48.322;14.340;2024-02-28T04:24:17;2.90;99.90
8591;DHT22;4333;48.322;14.340;2024-02-28T04:26:48;2.90;99.90
8591;DHT22;4333;48.322;14.340;2024-02-28T04:29:26;2.90;99.90
8591;DHT22;4333;48.322;14.340;2024-02-28T04:31:55;3.00;99.90
8591;DHT22;4333;48.322;14.340;2024-02-28T04:34:20;3.10;99.90
8591;DHT22;4333;48.322;14.340;2024-02-28T04:36:46;3.20;99.90
8591;DHT22;4333;48.322;14.340;2024-02-28T04:39:15;3.20;99.90
8591;DHT22;4333;48.322;14.340;2024-02-28T04:41:54;3.30;99.90
8591;DHT22;4333;48.322;14.340;2024-02-28T04:44:22;3.20;99.90
8591;DHT22;4333;48.322;14.340;2024-02-28T04:46:54;3.30;99.90
8591;DHT22;4333;48.322;14.340;2024-02-28T04:49:20;3.30;99.90
8591;DHT22;4333;48.322;14.340;2024-02-28T04:51:55;3.40;99.90
8591;DHT22;4333;48.322;14.340;2024-02-28T04:54:24;3.50;99.90
8591;DHT22;4333;48.322;14.340;2024-02-28T04:56:54;3.60;99.90
8591;DHT22;4333;48.322;14.340;2024-02-28T04:59:23;3.60;99.90
8591;DHT22;4333;48.322;14.340;2024-02-28T05:01:51;3.60;99.90
8591;DHT22;4333;48.322;14.340;2024-02-28T05:04:17;3.60;99.90
8591;DHT22;4333;48.322;14.340;2024-02-28T05:06:46;3.60;99.90
8591;DHT22;4333;48.322;14.340;2024-02-28T05:09:19;3.60;99.90
8591;DHT22;4333;48.322;14.340;2024-02-28T05:11:44;3.70;99.90
8591;DHT22;4333;48.322;14.340;2024-02-28T05:14:21;3.70;99.90
8591;DHT22;4333;48.322;14.340;2024-02-28T05:17:03;3.80;99.90
8591;DHT22;4333;48.322;14.340;2024-02-28T05:19:36;3.80;99.90
8591;DHT22;4333;48.322;14.340;2024-02-28T05:22:07;3.80;99.90
8591;DHT22;4333;48.322;14.340;2024-02-28T05:24:35;3.80;99.90
8591;DHT22;4333;48.322;14.340;2024-02-28T05:27:03;3.80;99.90
8591;DHT22;4333;48.322;14.340;2024-02-28T05:29:34;3.90;99.90
8591;DHT22;4333;48.322;14.340;2024-02-28T05:32:09;3.90;99.90
8591;DHT22;4333;48.322;14.340;2024-02-28T05:34:48;3.90;99.90
8591;DHT22;4333;48.322;14.340;2024-02-28T05:37:19;3.90;99.90
8591;DHT22;4333;48.322;14.340;2024-02-28T05:39:50;3.90;99.90
8591;DHT22;4333;48.322;14.340;2024-02-28T05:42:19;3.90;99.90
8591;DHT22;4333;48.322;14.340;2024-02-28T05:44:53;4.00;99.90
8591;DHT22;4333;48.322;14.340;2024-02-28T05:47:32;4.10;99.90
8591;DHT22;4333;48.322;14.340;2024-02-28T05:49:58;4.10;99.90
8591;DHT22;4333;48.322;14.340;2024-02-28T05:52:33;4.00;99.90
8591;DHT22;4333;48.322;14.340;2024-02-28T05:55:11;4.10;99.90
8591;DHT22;4333;48.322;14.340;2024-02-28T05:57:43;4.10;99.90
8591;DHT22;4333;48.322;14.340;2024-02-28T06:00:42;4.10;99.90
8591;DHT22;4333;48.322;14.340;2024-02-28T06:03:16;4.10;99.90
8591;DHT22;4333;48.322;14.340;2024-02-28T06:05:42;4.10;99.90
8591;DHT22;4333;48.322;14.340;2024-02-28T06:08:14;4.20;99.90
8591;DHT22;4333;48.322;14.340;2024-02-28T06:10:44;4.30;99.90
8591;DHT22;4333;48.322;14.340;2024-02-28T06:13:13;4.40;99.90
8591;DHT22;4333;48.322;14.340;2024-02-28T06:15:39;4.40;99.90
8591;DHT22;4333;48.322;14.340;2024-02-28T06:18:08;4.40;99.90
8591;DHT22;4333;48.322;14.340;2024-02-28T06:20:36;4.50;99.90
8591;DHT22;4333;48.322;14.340;2024-02-28T06:23:07;4.50;99.90
8591;DHT22;4333;48.322;14.340;2024-02-28T06:25:39;4.40;99.90
8591;DHT22;4333;48.322;14.340;2024-02-28T06:28:07;4.40;99.90
8591;DHT22;4333;48.322;14.340;2024-02-28T06:30:39;4.50;99.90
8591;DHT22;4333;48.322;14.340;2024-02-28T06:33:08;4.60;99.90
8591;DHT22;4333;48.322;14.340;2024-02-28T06:35:34;4.60;99.90
8591;DHT22;4333;48.322;14.340;2024-02-28T06:38:01;4.60;99.90
8591;DHT22;4333;48.322;14.340;2024-02-28T06:40:32;4.60;99.90
8591;DHT22;4333;48.322;14.340;2024-02-28T06:43:06;4.60;99.90
8591;DHT22;4333;48.322;14.340;2024-02-28T06:45:33;4.60;99.90
8591;DHT22;4333;48.322;14.340;2024-02-28T06:48:11;4.70;99.90
8591;DHT22;4333;48.322;14.340;2024-02-28T06:50:39;4.80;99.90
8591;DHT22;4333;48.322;14.340;2024-02-28T06:53:07;4.80;99.90
8591;DHT22;4333;48.322;14.340;2024-02-28T06:55:35;4.80;99.90
8591;DHT22;4333;48.322;14.340;2024-02-28T06:58:16;4.90;99.90
8591;DHT22;4333;48.322;14.340;2024-02-28T07:00:45;4.90;99.90
8591;DHT22;4333;48.322;14.340;2024-02-28T07:03:22;5.00;99.90
8591;DHT22;4333;48.322;14.340;2024-02-28T07:05:55;5.00;99.90
8591;DHT22;4333;48.322;14.340;2024-02-28T07:08:32;5.10;99.90
8591;DHT22;4333;48.322;14.340;2024-02-28T07:11:12;5.10;99.90
8591;DHT22;4333;48.322;14.340;2024-02-28T07:13:46;5.10;99.90
8591;DHT22;4333;48.322;14.340;2024-02-28T07:16:25;5.10;99.90
8591;DHT22;4333;48.322;14.340;2024-02-28T07:19:01;5.20;99.90
8591;DHT22;4333;48.322;14.340;2024-02-28T07:21:30;5.20;99.90
8591;DHT22;4333;48.322;14.340;2024-02-28T07:24:00;5.20;99.90
8591;DHT22;4333;48.322;14.340;2024-02-28T07:26:28;5.30;99.90
8591;DHT22;4333;48.322;14.340;2024-02-28T07:28:58;5.30;99.90
8591;DHT22;4333;48.322;14.340;2024-02-28T07:31:30;5.30;99.90
8591;DHT22;4333;48.322;14.340;2024-02-28T07:33:55;5.40;99.90
8591;DHT22;4333;48.322;14.340;2024-02-28T07:36:21;5.50;99.90
8591;DHT22;4333;48.322;14.340;2024-02-28T07:38:55;5.50;99.90
8591;DHT22;4333;48.322;14.340;2024-02-28T07:41:22;5.50;99.90
8591;DHT22;4333;48.322;14.340;2024-02-28T07:43:50;5.60;99.90
8591;DHT22;4333;48.322;14.340;2024-02-28T07:46:23;5.60;99.90
8591;DHT22;4333;48.322;14.340;2024-02-28T07:48:51;5.60;99.90
8591;DHT22;4333;48.322;14.340;2024-02-28T07:51:18;5.60;99.90
8591;DHT22;4333;48.322;14.340;2024-02-28T07:53:48;5.70;99.90
8591;DHT22;4333;48.322;14.340;2024-02-28T07:56:29;5.70;99.90
8591;DHT22;4333;48.322;14.340;2024-02-28T07:59:00;5.60;99.90
8591;DHT22;4333;48.322;14.340;2024-02-28T08:01:36;5.70;99.90
8591;DHT22;4333;48.322;14.340;2024-02-28T08:04:05;5.70;99.90
8591;DHT22;4333;48.322;14.340;2024-02-28T08:06:30;5.70;99.90
8591;DHT22;4333;48.322;14.340;2024-02-28T08:09:02;5.80;99.90
8591;DHT22;4333;48.322;14.340;2024-02-28T08:11:32;5.80;99.90
8591;DHT22;4333;48.322;14.340;2024-02-28T08:13:58;5.90;99.90
8591;DHT22;4333;48.322;14.340;2024-02-28T08:16:24;5.90;99.90
8591;DHT22;4333;48.322;14.340;2024-02-28T08:18:50;5.90;99.90
8591;DHT22;4333;48.322;14.340;2024-02-28T08:21:22;6.00;99.90
8591;DHT22;4333;48.322;14.340;2024-02-28T08:23:52;6.10;99.90
8591;DHT22;4333;48.322;14.340;2024-02-28T08:26:17;6.20;99.90
8591;DHT22;4333;48.322;14.340;2024-02-28T08:28:43;6.30;99.90
8591;DHT22;4333;48.322;14.340;2024-02-28T08:31:10;6.30;99.90
8591;DHT22;4333;48.322;14.340;2024-02-28T08:33:36;6.30;99.90
8591;DHT22;4333;48.322;14.340;2024-02-28T08:36:08;6.30;99.90
8591;DHT22;4333;48.322;14.340;2024-02-28T08:38:34;6.40;99.90
8591;DHT22;4333;48.322;14.340;2024-02-28T08:41:00;6.50;99.90
8591;DHT22;4333;48.322;14.340;2024-02-28T08:43:37;6.60;99.90
8591;DHT22;4333;48.322;14.340;2024-02-28T08:46:08;6.70;99.90
8591;DHT22;4333;48.322;14.340;2024-02-28T08:48:41;6.70;99.90
8591;DHT22;4333;48.322;14.340;2024-02-28T08:51:10;6.80;99.90
8591;DHT22;4333;48.322;14.340;2024-02-28T08:53:39;6.80;99.90
8591;DHT22;4333;48.322;14.340;2024-02-28T08:56:10;6.80;99.90
8591;DHT22;4333;48.322;14.340;2024-02-28T08:58:39;6.80;99.90
8591;DHT22;4333;48.322;14.340;2024-02-28T09:01:07;6.90;99.90
8591;DHT22;4333;48.322;14.340;2024-02-28T09:03:35;6.90;99.90
8591;DHT22;4333;48.322;14.340;2024-02-28T09:06:04;7.00;99.90
8591;DHT22;4333;48.322;14.340;2024-02-28T09:08:30;6.90;99.90
8591;DHT22;4333;48.322;14.340;2024-02-28T09:10:55;6.90;99.90
8591;DHT22;4333;48.322;14.340;2024-02-28T09:13:24;7.10;99.90
8591;DHT22;4333;48.322;14.340;2024-02-28T09:15:53;7.10;99.90
8591;DHT22;4333;48.322;14.340;2024-02-28T09:18:27;7.10;99.90
8591;DHT22;4333;48.322;14.340;2024-02-28T09:20:57;7.20;99.90
8591;DHT22;4333;48.322;14.340;2024-02-28T09:23:25;7.30;99.90
8591;DHT22;4333;48.322;14.340;2024-02-28T09:25:57;7.30;99.90
8591;DHT22;4333;48.322;14.340;2024-02-28T09:28:28;7.40;99.90
8591;DHT22;4333;48.322;14.340;2024-02-28T09:30:53;7.40;99.90
8591;DHT22;4333;48.322;14.340;2024-02-28T09:33:23;7.50;99.90
8591;DHT22;4333;48.322;14.340;2024-02-28T09:35:52;7.60;99.90
8591;DHT22;4333;48.322;14.340;2024-02-28T09:38:26;7.60;99.90
8591;DHT22;4333;48.322;14.340;2024-02-28T09:40:54;7.50;99.90
8591;DHT22;4333;48.322;14.340;2024-02-28T09:43:40;7.50;99.90
8591;DHT22;4333;48.322;14.340;2024-02-28T09:46:14;7.70;99.90
8591;DHT22;4333;48.322;14.340;2024-02-28T09:48:40;7.80;99.90
8591;DHT22;4333;48.322;14.340;2024-02-28T09:51:17;8.00;99.90
8591;DHT22;4333;48.322;14.340;2024-02-28T09:53:52;8.10;99.90
8591;DHT22;4333;48.322;14.340;2024-02-28T09:56:21;8.20;99.90
8591;DHT22;4333;48.322;14.340;2024-02-28T09:58:54;8.20;99.90
8591;DHT22;4333;48.322;14.340;2024-02-28T10:01:24;8.20;99.90
8591;DHT22;4333;48.322;14.340;2024-02-28T10:03:54;8.20;99.90
8591;DHT22;4333;48.322;14.340;2024-02-28T10:06:21;8.00;99.90
8591;DHT22;4333;48.322;14.340;2024-02-28T10:08:49;8.00;99.90
8591;DHT22;4333;48.322;14.340;2024-02-28T10:11:23;7.90;99.90
8591;DHT22;4333;48.322;14.340;2024-02-28T10:13:54;7.80;99.90
8591;DHT22;4333;48.322;14.340;2024-02-28T10:16:25;7.90;99.90
8591;DHT22;4333;48.322;14.340;2024-02-28T10:18:51;7.90;99.90
8591;DHT22;4333;48.322;14.340;2024-02-28T10:21:22;8.00;99.90
8591;DHT22;4333;48.322;14.340;2024-02-28T10:24:00;7.90;99.90
8591;DHT22;4333;48.322;14.340;2024-02-28T10:26:30;7.80;99.90
8591;DHT22;4333;48.322;14.340;2024-02-28T10:29:03;7.90;99.90
8591;DHT22;4333;48.322;14.340;2024-02-28T10:31:32;8.00;99.90
8591;DHT22;4333;48.322;14.340;2024-02-28T10:34:09;8.10;99.90
8591;DHT22;4333;48.322;14.340;2024-02-28T10:36:40;8.20;99.90
8591;DHT22;4333;48.322;14.340;2024-02-28T10:39:11;8.30;99.90
8591;DHT22;4333;48.322;14.340;2024-02-28T10:41:38;8.30;99.90
8591;DHT22;4333;48.322;14.340;2024-02-28T10:44:07;8.30;99.90
8591;DHT22;4333;48.322;14.340;2024-02-28T10:46:37;8.50;99.90
8591;DHT22;4333;48.322;14.340;2024-02-28T10:49:11;8.60;99.90
8591;DHT22;4333;48.322;14.340;2024-02-28T10:51:41;8.50;99.90
8591;DHT22;4333;48.322;14.340;2024-02-28T10:54:15;8.40;99.90
8591;DHT22;4333;48.322;14.340;2024-02-28T10:56:42;8.60;99.90
8591;DHT22;4333;48.322;14.340;2024-02-28T10:59:11;8.60;99.90
8591;DHT22;4333;48.322;14.340;2024-02-28T11:01:44;8.70;99.90
8591;DHT22;4333;48.322;14.340;2024-02-28T11:04:16;8.90;99.90
8591;DHT22;4333;48.322;14.340;2024-02-28T11:06:57;9.00;99.90
8591;DHT22;4333;48.322;14.340;2024-02-28T11:09:28;9.10;99.90
8591;DHT22;4333;48.322;14.340;2024-02-28T11:11:58;9.20;99.90
8591;DHT22;4333;48.322;14.340;2024-02-28T11:14:28;9.10;99.90
8591;DHT22;4333;48.322;14.340;2024-02-28T11:17:05;9.20;99.90
8591;DHT22;4333;48.322;14.340;2024-02-28T11:19:36;9.10;99.90
8591;DHT22;4333;48.322;14.340;2024-02-28T11:22:02;9.20;99.90
8591;DHT22;4333;48.322;14.340;2024-02-28T11:24:40;9.20;99.90
8591;DHT22;4333;48.322;14.340;2024-02-28T11:27:15;9.40;99.90
8591;DHT22;4333;48.322;14.340;2024-02-28T11:29:41;9.70;99.90
8591;DHT22;4333;48.322;14.340;2024-02-28T11:32:07;9.60;96.10
8591;DHT22;4333;48.322;14.340;2024-02-28T11:34:36;9.60;98.30
8591;DHT22;4333;48.322;14.340;2024-02-28T11:37:03;9.40;98.40
8591;DHT22;4333;48.322;14.340;2024-02-28T11:39:33;9.10;98.60
8591;DHT22;4333;48.322;14.340;2024-02-28T11:42:11;8.80;99.90
8591;DHT22;4333;48.322;14.340;2024-02-28T11:44:52;8.80;99.90
8591;DHT22;4333;48.322;14.340;2024-02-28T11:47:37;8.80;99.90
8591;DHT22;4333;48.322;14.340;2024-02-28T11:50:03;8.70;99.90
8591;DHT22;4333;48.322;14.340;2024-02-28T11:52:36;8.90;99.90
8591;DHT22;4333;48.322;14.340;2024-02-28T11:55:04;9.10;99.90
8591;DHT22;4333;48.322;14.340;2024-02-28T11:57:37;9.50;99.90
8591;DHT22;4333;48.322;14.340;2024-02-28T12:00:08;9.80;98.10
8591;DHT22;4333;48.322;14.340;2024-02-28T12:02:46;9.90;95.60
8591;DHT22;4333;48.322;14.340;2024-02-28T12:05:12;9.70;94.30
8591;DHT22;4333;48.322;14.340;2024-02-28T12:07:41;9.40;95.30
8591;DHT22;4333;48.322;14.340;2024-02-28T12:10:10;9.20;98.30
8591;DHT22;4333;48.322;14.340;2024-02-28T12:12:35;9.20;99.90
8591;DHT22;4333;48.322;14.340;2024-02-28T12:15:12;9.10;99.90
8591;DHT22;4333;48.322;14.340;2024-02-28T12:17:38;9.20;99.90
8591;DHT22;4333;48.322;14.340;2024-02-28T12:20:07;9.40;99.90
8591;DHT22;4333;48.322;14.340;2024-02-28T12:22:33;9.60;99.10
8591;DHT22;4333;48.322;14.340;2024-02-28T12:24:59;9.70;96.70
8591;DHT22;4333;48.322;14.340;2024-02-28T12:30:09;10.00;92.30
8591;DHT22;4333;48.322;14.340;2024-02-28T12:32:36;10.00;90.70
8591;DHT22;4333;48.322;14.340;2024-02-28T12:35:05;9.60;92.40
8591;DHT22;4333;48.322;14.340;2024-02-28T12:37:44;9.50;95.20
8591;DHT22;4333;48.322;14.340;2024-02-28T12:40:18;9.60;96.30
8591;DHT22;4333;48.322;14.340;2024-02-28T12:42:44;9.60;98.40
8591;DHT22;4333;48.322;14.340;2024-02-28T12:45:16;9.80;97.70
8591;DHT22;4333;48.322;14.340;2024-02-28T12:47:42;9.90;94.20
8591;DHT22;4333;48.322;14.340;2024-02-28T12:50:10;9.70;90.30
8591;DHT22;4333;48.322;14.340;2024-02-28T12:52:40;9.90;92.30
8591;DHT22;4333;48.322;14.340;2024-02-28T12:55:06;9.80;91.50
8591;DHT22;4333;48.322;14.340;2024-02-28T12:57:35;10.00;93.30
8591;DHT22;4333;48.322;14.340;2024-02-28T13:00:01;10.10;92.40
8591;DHT22;4333;48.322;14.340;2024-02-28T13:02:35;10.10;92.60
8591;DHT22;4333;48.322;14.340;2024-02-28T13:05:07;10.20;93.00
8591;DHT22;4333;48.322;14.340;2024-02-28T13:07:45;10.20;90.70
8591;DHT22;4333;48.322;14.340;2024-02-28T13:10:14;10.40;88.30
8591;DHT22;4333;48.322;14.340;2024-02-28T13:12:43;10.40;84.30
8591;DHT22;4333;48.322;14.340;2024-02-28T13:15:11;10.30;84.50
8591;DHT22;4333;48.322;14.340;2024-02-28T13:17:37;10.00;87.30
8591;DHT22;4333;48.322;14.340;2024-02-28T13:20:03;10.00;92.60
8591;DHT22;4333;48.322;14.340;2024-02-28T13:22:32;10.30;91.60
8591;DHT22;4333;48.322;14.340;2024-02-28T13:24:58;10.50;91.00
8591;DHT22;4333;48.322;14.340;2024-02-28T13:27:27;10.30;88.50
8591;DHT22;4333;48.322;14.340;2024-02-28T13:29:59;9.90;91.10
8591;DHT22;4333;48.322;14.340;2024-02-28T13:32:30;9.50;96.70
8591;DHT22;4333;48.322;14.340;2024-02-28T13:34:56;9.40;99.90
8591;DHT22;4333;48.322;14.340;2024-02-28T13:40:10;9.60;98.80
8591;DHT22;4333;48.322;14.340;2024-02-28T13:42:45;9.30;99.90
8591;DHT22;4333;48.322;14.340;2024-02-28T13:45:21;9.10;99.90
8591;DHT22;4333;48.322;14.340;2024-02-28T13:47:47;9.10;99.90
8591;DHT22;4333;48.322;14.340;2024-02-28T13:50:23;9.10;99.90
8591;DHT22;4333;48.322;14.340;2024-02-28T13:52:57;9.10;99.90
8591;DHT22;4333;48.322;14.340;2024-02-28T13:55:26;9.20;99.90
8591;DHT22;4333;48.322;14.340;2024-02-28T13:57:51;9.10;99.90
8591;DHT22;4333;48.322;14.340;2024-02-28T14:00:17;9.10;99.90
8591;DHT22;4333;48.322;14.340;2024-02-28T14:02:43;9.00;99.90
8591;DHT22;4333;48.322;14.340;2024-02-28T14:05:10;9.00;99.90
8591;DHT22;4333;48.322;14.340;2024-02-28T14:07:38;9.00;99.90
8591;DHT22;4333;48.322;14.340;2024-02-28T14:10:05;8.90;99.90
8591;DHT22;4333;48.322;14.340;2024-02-28T14:12:44;8.80;99.90
8591;DHT22;4333;48.322;14.340;2024-02-28T14:15:10;8.80;99.90
8591;DHT22;4333;48.322;14.340;2024-02-28T14:17:52;8.80;99.90
8591;DHT22;4333;48.322;14.340;2024-02-28T14:20:18;8.80;99.90
8591;DHT22;4333;48.322;14.340;2024-02-28T14:22:44;8.80;99.90
8591;DHT22;4333;48.322;14.340;2024-02-28T14:25:18;8.80;99.90
8591;DHT22;4333;48.322;14.340;2024-02-28T14:27:46;8.80;99.90
8591;DHT22;4333;48.322;14.340;2024-02-28T14:30:13;8.90;99.90
8591;DHT22;4333;48.322;14.340;2024-02-28T14:32:43;8.80;99.90
8591;DHT22;4333;48.322;14.340;2024-02-28T14:35:11;8.70;99.90
8591;DHT22;4333;48.322;14.340;2024-02-28T14:37:38;8.70;99.90
8591;DHT22;4333;48.322;14.340;2024-02-28T14:40:08;8.60;99.90
8591;DHT22;4333;48.322;14.340;2024-02-28T14:42:41;8.80;99.90
8591;DHT22;4333;48.322;14.340;2024-02-28T14:45:16;8.70;99.90
8591;DHT22;4333;48.322;14.340;2024-02-28T14:47:43;8.80;99.90
8591;DHT22;4333;48.322;14.340;2024-02-28T14:50:30;8.80;99.90
8591;DHT22;4333;48.322;14.340;2024-02-28T14:53:02;8.70;99.90
8591;DHT22;4333;48.322;14.340;2024-02-28T14:58:29;8.70;99.90
8591;DHT22;4333;48.322;14.340;2024-02-28T15:00:54;8.80;99.90
8591;DHT22;4333;48.322;14.340;2024-02-28T15:03:34;8.80;99.90
8591;DHT22;4333;48.322;14.340;2024-02-28T15:06:00;8.80;99.90
8591;DHT22;4333;48.322;14.340;2024-02-28T15:08:26;8.80;99.90
8591;DHT22;4333;48.322;14.340;2024-02-28T15:10:52;8.70;99.90
8591;DHT22;4333;48.322;14.340;2024-02-28T15:13:20;8.80;99.90
8591;DHT22;4333;48.322;14.340;2024-02-28T15:15:46;8.80;99.90
8591;DHT22;4333;48.322;14.340;2024-02-28T15:18:17;8.80;99.90
8591;DHT22;4333;48.322;14.340;2024-02-28T15:20:42;8.80;99.90
8591;DHT22;4333;48.322;14.340;2024-02-28T15:23:08;8.70;99.90
8591;DHT22;4333;48.322;14.340;2024-02-28T15:25:34;8.70;99.90
8591;DHT22;4333;48.322;14.340;2024-02-28T15:28:13;8.80;99.90
8591;DHT22;4333;48.322;14.340;2024-02-28T15:30:50;8.80;99.90
8591;DHT22;4333;48.322;14.340;2024-02-28T15:33:34;8.80;99.90
8591;DHT22;4333;48.322;14.340;2024-02-28T15:36:09;8.70;99.90
8591;DHT22;4333;48.322;14.340;2024-02-28T15:38:58;8.70;99.90
8591;DHT22;4333;48.322;14.340;2024-02-28T15:41:25;8.70;99.90
8591;DHT22;4333;48.322;14.340;2024-02-28T15:44:00;8.70;99.90
8591;DHT22;4333;48.322;14.340;2024-02-28T15:46:26;8.60;99.90
8591;DHT22;4333;48.322;14.340;2024-02-28T15:49:10;8.70;99.90
8591;DHT22;4333;48.322;14.340;2024-02-28T15:51:39;8.60;99.90
8591;DHT22;4333;48.322;14.340;2024-02-28T15:54:05;8.60;99.90
8591;DHT22;4333;48.322;14.340;2024-02-28T15:56:31;8.60;99.90
8591;DHT22;4333;48.322;14.340;2024-02-28T15:59:00;8.60;99.90
8591;DHT22;4333;48.322;14.340;2024-02-28T16:01:33;8.60;99.90
8591;DHT22;4333;48.322;14.340;2024-02-28T16:03:59;8.50;99.90
8591;DHT22;4333;48.322;14.340;2024-02-28T16:06:25;8.50;99.90
8591;DHT22;4333;48.322;14.340;2024-02-28T16:08:51;8.50;99.90
8591;DHT22;4333;48.322;14.340;2024-02-28T16:11:28;8.50;99.90
8591;DHT22;4333;48.322;14.340;2024-02-28T16:13:54;8.50;99.90
8591;DHT22;4333;48.322;14.340;2024-02-28T16:16:23;8.40;99.90
8591;DHT22;4333;48.322;14.340;2024-02-28T16:18:51;8.50;99.90
8591;DHT22;4333;48.322;14.340;2024-02-28T16:21:23;8.50;99.90
8591;DHT22;4333;48.322;14.340;2024-02-28T16:23:55;8.50;99.90
8591;DHT22;4333;48.322;14.340;2024-02-28T16:26:30;8.50;99.90
8591;DHT22;4333;48.322;14.340;2024-02-28T16:29:16;8.40;99.90